AirNav   Air Wisconsin Up To $57,000 Bonus
 
 378 users online  

0MI9 Henry Ford Hospital Heliport
Detroit, Michigan, USA

GOING TO DETROIT?


FAA INFORMATION EFFECTIVE 26 MARCH 2020

Location

FAA Identifier: 0MI9
Lat/Long: 42-22-07.3500N 083-05-07.3600W
42-22.122500N 083-05.122667W
42.3687083,-83.0853778
(estimated)
Elevation: 633 ft. / 193 m (estimated)
Variation: 06W (1990)
Time zone: UTC -4 (UTC -5 during Standard Time)
Zip code: 48202

Heliport Operations

Heliport use: Private use, MEDICAL USE.
Activation date: 02/1992
Control tower: no
ARTCC: CLEVELAND CENTER
FSS: LANSING FLIGHT SERVICE STATION
Attendance: UNATNDD
Wind indicator: yes
Segmented circle: no
Lights: FOR PERIMETER LGTS PHONE 313-876-1115.

Heliport Communications

WX ASOS at DET (4 nm NE): PHONE 313-371-9696
WX AWOS-3 at VLL (11 nm N): 119.475 (248-288-4649)
WX ASOS at DTW (15 nm SW): 133.675 (734-955-5015)
WX AWOS-3 at ONZ (17 nm S): 119.675 (734-692-9686)

Nearby radio navigation aids

VOR radial/distance  VOR name  Freq  Var
YQGr308/13.4WINDSOR VOR/DME113.8006W
DXOr059/15.6DETROIT VOR/DME113.4006W
SVMr099/22.7SALEM VORTAC114.3003W
CRLr044/25.4CARLETON VOR/DME115.7003W

 
NDB name  Hdg/Dist  Freq  Var  ID
GROSSE ILE018/16.341907WRYS .-. -.-- ...

Heliport Services

Runway Information

Helipad H1

Dimensions: 45 x 45 ft. / 14 x 14 m
Surface: concrete
Runway edge lights: PERI
PERIMETER LGTS.
Latitude: 42-22.122000N
Longitude: 083-05.121833W
Elevation: 633.0 ft.
Traffic pattern: leftleft

Heliport Ownership and Management from official FAA records

Ownership: Privately-owned
Owner: HENRY FORD HOSPITAL
2799 W. GRAND BLVD
DETROIT, MI 48202
Phone 313-916-2924
Manager: JEFFERY RIVIER
2799 W. GRAND BLVD
DETROIT, MI 48202
Phone (313) 916-7877

Additional Remarks

FOR CD CTC DETROIT APCH AT 800-499-8181.

Instrument Procedures

There are no published instrument procedures at 0MI9.

Some nearby airports with instrument procedures:

KDET - Coleman A Young Municipal Airport (4 nm NE)
KVLL - Oakland/Troy Airport (11 nm N)
KDTW - Detroit Metropolitan Wayne County Airport (15 nm SW)
1D2 - Canton-Plymouth-Mettetal Airport (16 nm W)
KONZ - Grosse Ile Municipal Airport (17 nm S)
KMTC - Selfridge Air National Guard Base (18 nm NE)
 
Loc | Ops | Rwys | IFR | FBO | Links
Com | Nav | Svcs | Stats | Notes
Area around 0MI9 (Henry Ford Hospital Heliport)
 
Road maps at: MapQuest Bing Google
 
Aerial photo
No photo
 
Sectional chart

 
Airport distance calculator
Flying to Henry Ford Hospital Heliport? Find the distance to fly.

From to 0MI9

Sunrise and sunset
Times for 04-Apr-2020
 Local
(UTC-4)
 Zulu
(UTC)
Morning civil twilight06:4010:40
Sunrise07:0911:09
Sunset20:0100:01
Evening civil twilight20:3000:30

Current date and time
Zulu (UTC)  04-Apr-2020 07:19:10
Local (UTC-4)  04-Apr-2020 03:19:10
 
METAR
KDET 
4nm NE 
040653Z 00000KT 10SM CLR 03/M03 A3005 RMK AO2 SLP179 T00331028
CYQG 
8nm SE 
040600Z AUTO 06003KT 9SM CLR 02/M00 A3006 RMK SLP183
KVLL 
11nm N 
040655Z AUTO 00000KT 10SM CLR 04/M01 A3006 RMK AO2 T00361012
KDTW 
14nm SW 
040653Z 00000KT 10SM FEW250 05/00 A3005 RMK AO2 SLP176 T00500000
KONZ 
16nm S 
040655Z AUTO 00000KT 10SM CLR 04/00 A3004 RMK AO2 T00360003
KMTC 
19nm NE 
040656Z AUTO M 10SM CLR 02/00 A3003 RMK AO2 SLP177 T00221001 $
TAF
KDET 
4nm NE 
040520Z 0406/0506 04005KT P6SM SKC FM041500 16005KT P6SM BKN070 FM042000 23006KT P6SM OVC045 FM042300 24006KT P6SM OVC025
CYQG 
8nm SE 
040538Z 0406/0506 VRB03KT P6SM SKC FM041500 20006KT P6SM SCT060 BKN120 FM041900 22008KT P6SM -SHRA BKN040 OVC080 FM042200 25008KT P6SM -SHRA OVC030 FM050000 28010KT P6SM -SHRA OVC020 FM050200 32008KT P6SM OVC012 RMK FCST BASED ON AUTO OBS. NXT FCST BY 041200Z
KDTW 
14nm SW 
040520Z 0406/0512 04005KT P6SM SKC FM041500 16005KT P6SM BKN070 FM042000 23006KT P6SM OVC045 FM042300 24006KT P6SM OVC025
KMTC 
19nm NE 
040100Z 0401/0507 VRB06KT 9999 FEW090 FEW250 QNH2999INS BECMG 0410/0411 35009KT 9999 SCT050 BKN080 620902 QNH2998INS BECMG 0417/0418 18009KT 9999 SCT030 OVC050 620903 QNH2996INS BECMG 0420/0421 25009KT 9000 -DZ OVC030 620905 QNH2997INS BECMG 0502/0503 34012KT 9999 NSW OVC015 QNH3000INS TX14/0420Z TN01/0411Z LAST NO AMDS AFT 0403 NEXT 0409
NOTAMs
Click for the latest NOTAMs
NOTAMs are issued by the DoD/FAA and will open in a separate window not controlled by AirNav.

 

 
 

Would you like to see your business listed on this page?

 If your business provides an interesting product or service to pilots, flight crews, aircraft, or users of the Henry Ford Hospital Heliport, you should consider listing it here.  To start the listing process, click on the button below
 
Add a business
 

Other Pages about Henry Ford Hospital Heliport

Update a link
 
Copyright © AirNav, LLC. All rights reserved. Privacy Policy  Contact